This is the latest recevied weather packets stored in our database for station/object KK4WXG. If no packets are shown the sender has not sent any weather packets the latest 1 day(s).
| Time | Temp. | Humidity | Pressure | Rain* | Wind** | Luminosity | Snow |
|---|---|---|---|---|---|---|---|
| 1777976409 | 12.22° C | 82% | 1010.4 hPa | 0 mm | 0 m/s | 14 W/m² | - |
| 1777976108 | 11.67° C | 84% | 1010.5 hPa | 0 mm | 0.45 m/s, 145° | 9 W/m² | - |
| 1777975804 | 11.11° C | 87% | 1010.5 hPa | 0 mm | 0.89 m/s, 158° | 5 W/m² | - |
| 1777975501 | 11.11° C | 87% | 1010.4 hPa | 0 mm | 0 m/s | 3 W/m² | - |
| 1777975197 | 10.56° C | 88% | 1010.4 hPa | 0 mm | 0 m/s | 1 W/m² | - |
| 1777974894 | 10.56° C | 88% | 1010.5 hPa | 0 mm | 0.45 m/s, 38° | 0 W/m² | - |
| 1777974590 | 10.56° C | 87% | 1010.3 hPa | 0 mm | 0.89 m/s, 56° | 0 W/m² | - |
| 1777974287 | 10.56° C | 87% | 1010.3 hPa | 0 mm | 0.45 m/s, 33° | 0 W/m² | - |
| 1777973983 | 11.11° C | 85% | 1010.2 hPa | 0 mm | 0 m/s | 0 W/m² | - |
| 1777973680 | 11.11° C | 84% | 1010.2 hPa | 0 mm | 0.89 m/s, 91° | 0 W/m² | - |
| 1777973377 | 11.67° C | 83% | 1010.2 hPa | 0 mm | 0.89 m/s, 97° | 0 W/m² | - |
| 1777973074 | 11.67° C | 84% | 1010.2 hPa | 0 mm | 0.45 m/s, 132° | 0 W/m² | - |
| 1777972772 | 11.67° C | 83% | 1010.2 hPa | 0 mm | 0 m/s | 0 W/m² | - |
| 1777972469 | 11.67° C | 83% | 1010.2 hPa | 0 mm | 0.89 m/s, 133° | 0 W/m² | - |
| 1777972167 | 11.67° C | 82% | 1010.3 hPa | 0 mm | 0.89 m/s, 31° | 0 W/m² | - |
| 1777971865 | 11.67° C | 82% | 1010.2 hPa | 0 mm | 0.89 m/s, 49° | 0 W/m² | - |
| 1777971562 | 12.22° C | 81% | 1010.1 hPa | 0 mm | 0.89 m/s, 34° | 0 W/m² | - |
| 1777971260 | 12.22° C | 79% | 1010.1 hPa | 0 mm | 0.45 m/s, 72° | 0 W/m² | - |
| 1777970958 | 12.78° C | 78% | 1010.1 hPa | 0 mm | 1.34 m/s, 106° | 0 W/m² | - |
| 1777970656 | 12.78° C | 77% | 1010.3 hPa | 0 mm | 0.89 m/s, 163° | 0 W/m² | - |
| 1777970354 | 12.78° C | 78% | 1010.1 hPa | 0 mm | 0.89 m/s, 138° | 0 W/m² | - |
| 1777970051 | 12.78° C | 78% | 1009.9 hPa | 0 mm | 0.89 m/s, 132° | 0 W/m² | - |
| 1777969747 | 12.78° C | 78% | 1010 hPa | 0 mm | 0.89 m/s, 140° | 0 W/m² | - |
| 1777969443 | 12.78° C | 78% | 1010 hPa | 0 mm | 0.89 m/s, 144° | 0 W/m² | - |
| 1777969140 | 12.78° C | 78% | 1010 hPa | 0 mm | 0.89 m/s, 156° | 0 W/m² | - |
* Rain latest hour (hover to see other rain measurements)
** Current wind speed in m/s (hover to see current wind gust speed)